Time;durP1;ratioP1;P1;durP2;ratioP2;P2;SDS_P1;SDS_P2;PMS_P1;PMS_P2;Temp;Humidity;BMP_temperature;BMP_pressure;BME280_temperature;BME280_humidity;BME280_pressure;Samples;Min_cycle;Max_cycle;Signal;HPM_P1;HPM_P2
2023/05/04 00:00:09;;;;;;;19.97;2.73;;;5.60;97.30;;;;;;5052966;28;20270;-85
2023/05/04 00:02:35;;;;;;;1.40;1.30;;;5.60;97.30;;;;;;5061047;28;20199;-84
2023/05/04 00:05:01;;;;;;;1.47;1.37;;;5.50;97.30;;;;;;5052833;28;20473;-84
2023/05/04 00:07:26;;;;;;;1.60;1.50;;;5.50;97.30;;;;;;5052693;28;20422;-84
2023/05/04 00:09:52;;;;;;;2.43;2.23;;;5.40;97.30;;;;;;5068978;28;20186;-84
2023/05/04 00:12:17;;;;;;;6.50;2.57;;;5.40;97.30;;;;;;5052355;28;20336;-85
2023/05/04 00:14:43;;;;;;;2.00;1.87;;;5.40;97.30;;;;;;5052332;28;20438;-85
2023/05/04 00:17:08;;;;;;;1.80;1.70;;;5.40;97.30;;;;;;5060521;28;20195;-84
2023/05/04 00:19:36;;;;;;;1.67;1.57;;;5.40;97.30;;;;;;5052236;28;20200;-84
2023/05/04 00:22:01;;;;;;;1.60;1.50;;;5.30;97.30;;;;;;5051725;28;20750;-84
2023/05/04 00:24:27;;;;;;;1.30;1.20;;;5.30;97.30;;;;;;5057908;28;20512;-84
2023/05/04 00:26:53;;;;;;;1.23;1.13;;;5.20;97.30;;;;;;5055381;28;20417;-84
2023/05/04 00:29:19;;;;;;;5.03;3.93;;;5.20;97.30;;;;;;5051937;28;20430;-85
2023/05/04 00:31:45;;;;;;;1.67;1.60;;;5.10;97.30;;;;;;5059829;28;20225;-84
2023/05/04 00:34:10;;;;;;;1.50;1.40;;;5.10;97.30;;;;;;5051505;28;20854;-85
2023/05/04 00:36:36;;;;;;;2.97;2.77;;;5.10;97.30;;;;;;5050459;28;20233;-85
2023/05/04 00:39:02;;;;;;;1.93;1.83;;;5.10;97.30;;;;;;5050445;28;20434;-85
2023/05/04 00:41:27;;;;;;;1.50;1.40;;;5.00;97.30;;;;;;5052811;28;20443;-84
2023/05/04 00:43:53;;;;;;;3.00;2.80;;;5.00;97.30;;;;;;5052355;28;20219;-84
2023/05/04 00:46:18;;;;;;;1.77;1.67;;;5.00;97.30;;;;;;5051476;28;20222;-85
2023/05/04 00:48:47;;;;;;;3.70;2.03;;;4.90;97.30;;;;;;5060261;28;20184;-84
2023/05/04 00:51:15;;;;;;;2.27;2.10;;;4.90;97.30;;;;;;5054526;28;20175;-84
2023/05/04 00:53:40;;;;;;;2.13;1.97;;;4.90;97.30;;;;;;5063996;28;20465;-84
2023/05/04 00:56:06;;;;;;;2.43;2.23;;;4.80;97.30;;;;;;5051144;28;20465;-85
2023/05/04 00:58:33;;;;;;;3.67;2.13;;;4.80;97.30;;;;;;5051068;28;20594;-85
2023/05/04 01:00:59;;;;;;;1.50;1.40;;;4.80;97.30;;;;;;5059224;28;20428;-85
2023/05/04 01:03:26;;;;;;;3.27;2.20;;;4.70;97.30;;;;;;5057617;28;20457;-84
2023/05/04 01:06:16;;;;;;;3.50;3.30;;;4.70;97.30;;;;;;5059204;28;20497;-84
2023/05/04 01:08:52;;;;;;;5.33;2.57;;;4.70;97.30;;;;;;5067507;28;20434;-84
2023/05/04 01:11:25;;;;;;;2.50;2.30;;;4.70;97.30;;;;;;5043515;28;20422;-84
2023/05/04 01:13:52;;;;;;;7.43;3.50;;;4.60;97.30;;;;;;5059324;28;20436;-85
2023/05/04 01:16:17;;;;;;;1.43;1.33;;;4.60;97.30;;;;;;5053343;28;20424;-84
2023/05/04 01:18:43;;;;;;;1.90;1.80;;;4.60;97.30;;;;;;5051200;28;20505;-86
2023/05/04 01:21:08;;;;;;;1.77;1.60;;;4.60;97.30;;;;;;5059759;28;20202;-84
2023/05/04 01:23:34;;;;;;;1.80;1.70;;;4.50;97.30;;;;;;5051349;28;20180;-81
2023/05/04 01:26:23;;;;;;;2.33;2.13;;;4.50;97.30;;;;;;5051197;28;20204;-84
2023/05/04 01:28:56;;;;;;;2.30;1.83;;;4.50;97.30;;;;;;5060657;28;20195;-84
2023/05/04 01:31:25;;;;;;;2.10;1.57;;;4.50;97.30;;;;;;5058134;28;20426;-85
2023/05/04 01:33:52;;;;;;;6.93;3.47;;;4.50;97.30;;;;;;5051884;28;20540;-84
2023/05/04 01:36:20;;;;;;;2.30;1.73;;;4.40;97.30;;;;;;5056099;28;20410;-84
2023/05/04 01:38:52;;;;;;;2.80;2.07;;;4.40;97.30;;;;;;5050615;28;20422;-84
2023/05/04 01:41:17;;;;;;;1.80;1.70;;;4.40;97.30;;;;;;5042533;28;20421;-84
2023/05/04 01:43:43;;;;;;;1.80;1.37;;;4.30;97.30;;;;;;5050591;28;21014;-84
2023/05/04 01:46:08;;;;;;;4.13;1.70;;;4.30;97.30;;;;;;5050308;28;20220;-85
2023/05/04 01:48:34;;;;;;;2.97;2.03;;;4.20;97.30;;;;;;5050686;28;20175;-84
2023/05/04 01:50:59;;;;;;;1.93;1.83;;;4.20;97.30;;;;;;5050611;28;20563;-84
2023/05/04 01:53:25;;;;;;;10.00;2.70;;;4.10;97.30;;;;;;5050060;28;20673;-84
2023/05/04 01:55:51;;;;;;;3.63;2.30;;;4.10;97.30;;;;;;5050841;28;20539;-86
2023/05/04 01:58:17;;;;;;;3.00;2.33;;;4.10;97.30;;;;;;5049843;28;20425;-84
2023/05/04 02:00:43;;;;;;;1.90;1.80;;;4.10;97.30;;;;;;5049923;28;20351;-84
2023/05/04 02:03:08;;;;;;;2.40;2.20;;;4.10;97.30;;;;;;5049540;28;20510;-85
2023/05/04 02:05:34;;;;;;;3.47;1.93;;;4.00;97.30;;;;;;5050261;28;20694;-84
2023/05/04 02:08:00;;;;;;;3.00;2.60;;;4.00;97.30;;;;;;5060206;28;20175;-84
2023/05/04 02:10:25;;;;;;;1.33;1.23;;;3.90;97.30;;;;;;5049340;28;20415;-86
2023/05/04 02:12:51;;;;;;;3.77;3.20;;;3.90;97.30;;;;;;5050177;28;20812;-84
2023/05/04 02:15:16;;;;;;;1.57;1.40;;;3.90;97.30;;;;;;5042664;28;20184;-84
2023/05/04 02:17:42;;;;;;;1.97;1.87;;;3.90;97.30;;;;;;5050305;28;20192;-84
2023/05/04 02:20:08;;;;;;;3.23;2.50;;;3.90;97.30;;;;;;5053447;28;20183;-84
2023/05/04 02:22:34;;;;;;;2.10;1.90;;;3.80;97.30;;;;;;5056374;28;20625;-84
2023/05/04 02:24:59;;;;;;;4.90;2.40;;;3.80;97.30;;;;;;5050042;28;20462;-86
2023/05/04 02:27:25;;;;;;;1.40;1.33;;;3.80;97.30;;;;;;5050605;28;20183;-84
2023/05/04 02:29:50;;;;;;;1.97;1.87;;;3.80;97.30;;;;;;5050089;28;20175;-85
2023/05/04 02:32:16;;;;;;;1.47;1.37;;;3.80;97.30;;;;;;5049738;28;20714;-84
2023/05/04 02:34:41;;;;;;;2.13;1.97;;;3.80;97.30;;;;;;5048312;28;20188;-85
2023/05/04 02:37:07;;;;;;;1.53;1.43;;;3.70;97.30;;;;;;5057140;28;20194;-84
2023/05/04 02:39:32;;;;;;;3.57;2.43;;;3.70;97.30;;;;;;5051081;28;20690;-84
2023/05/04 02:41:58;;;;;;;2.73;2.53;;;3.70;97.30;;;;;;5057858;28;20284;-85
2023/05/04 02:44:23;;;;;;;2.73;2.53;;;3.70;97.30;;;;;;5049592;28;20184;-84
2023/05/04 02:46:49;;;;;;;4.60;1.73;;;3.70;97.30;;;;;;5049929;28;20666;-84
2023/05/04 02:49:14;;;;;;;1.77;1.40;;;3.70;97.30;;;;;;5049669;28;20274;-84
2023/05/04 02:51:40;;;;;;;7.27;2.97;;;3.60;97.30;;;;;;5050902;28;20259;-85
2023/05/04 02:54:07;;;;;;;1.47;1.37;;;3.60;97.30;;;;;;5051478;28;20204;-85
2023/05/04 02:56:32;;;;;;;6.07;4.43;;;3.50;97.30;;;;;;5049914;28;20172;-85
2023/05/04 02:58:58;;;;;;;1.60;1.47;;;3.50;97.30;;;;;;5049415;28;20489;-86
2023/05/04 03:01:23;;;;;;;1.70;1.60;;;3.50;97.30;;;;;;5065384;28;20345;-84
2023/05/04 03:03:49;;;;;;;1.50;1.40;;;3.40;97.30;;;;;;5049661;28;20223;-84
2023/05/04 03:06:14;;;;;;;8.27;1.87;;;3.40;97.30;;;;;;5064229;28;20206;-84
2023/05/04 03:08:40;;;;;;;4.87;4.17;;;3.40;97.30;;;;;;5058224;28;20187;-84
2023/05/04 03:11:05;;;;;;;2.60;2.13;;;3.40;97.30;;;;;;5052865;28;20178;-84
2023/05/04 03:13:31;;;;;;;2.13;1.63;;;3.40;97.30;;;;;;5053039;28;20229;-84
2023/05/04 03:15:56;;;;;;;2.37;2.17;;;3.40;97.30;;;;;;5053080;28;20184;-84
2023/05/04 03:18:22;;;;;;;1.37;1.27;;;3.40;97.30;;;;;;5052781;28;20654;-84
2023/05/04 03:20:47;;;;;;;1.60;1.50;;;3.40;97.30;;;;;;5051796;28;20418;-84
2023/05/04 03:23:13;;;;;;;1.87;1.67;;;3.30;97.30;;;;;;5054892;28;20199;-85
2023/05/04 03:25:38;;;;;;;1.20;1.10;;;3.30;97.30;;;;;;5057865;28;20775;-84
2023/05/04 03:28:04;;;;;;;2.30;1.63;;;3.30;97.30;;;;;;5052746;28;20183;-84
2023/05/04 03:30:30;;;;;;;1.73;1.63;;;3.30;97.30;;;;;;5052490;28;20188;-85
2023/05/04 03:32:55;;;;;;;1.87;1.80;;;3.30;97.30;;;;;;5060664;28;20277;-85
2023/05/04 03:35:21;;;;;;;2.50;2.30;;;3.30;97.30;;;;;;5050832;28;20676;-84
2023/05/04 03:37:46;;;;;;;2.27;2.13;;;3.30;97.30;;;;;;5054136;28;20241;-85
2023/05/04 03:40:12;;;;;;;2.53;2.33;;;3.30;97.30;;;;;;5060787;28;20184;-84
2023/05/04 03:42:37;;;;;;;2.40;1.37;;;3.20;97.30;;;;;;5052225;28;20753;-85
2023/05/04 03:45:03;;;;;;;1.60;1.50;;;3.20;97.30;;;;;;5052223;28;20249;-84
2023/05/04 03:47:29;;;;;;;1.67;1.57;;;3.20;97.30;;;;;;5052315;28;20689;-85
2023/05/04 03:49:54;;;;;;;2.87;2.70;;;3.20;97.30;;;;;;5053911;28;20678;-84
2023/05/04 03:52:19;;;;;;;1.43;1.33;;;3.10;97.30;;;;;;5052701;28;20231;-84
2023/05/04 03:54:45;;;;;;;1.83;1.73;;;3.20;97.30;;;;;;5052249;28;20645;-85
2023/05/04 03:57:10;;;;;;;1.67;1.57;;;3.20;97.30;;;;;;5061684;28;20190;-84
2023/05/04 03:59:36;;;;;;;2.23;2.03;;;3.20;97.30;;;;;;5052349;28;20262;-84
2023/05/04 04:02:01;;;;;;;1.93;1.83;;;3.20;97.30;;;;;;5053490;28;20204;-84
2023/05/04 04:04:27;;;;;;;1.67;1.60;;;3.20;97.30;;;;;;5053541;28;20184;-84
2023/05/04 04:06:52;;;;;;;1.70;1.60;;;3.20;97.30;;;;;;5052148;28;20180;-85
2023/05/04 04:09:18;;;;;;;2.80;2.60;;;3.20;97.30;;;;;;5060844;28;20194;-84
2023/05/04 04:11:43;;;;;;;1.67;1.57;;;3.30;97.30;;;;;;5052024;28;20261;-85
2023/05/04 04:14:09;;;;;;;3.73;3.00;;;3.30;97.30;;;;;;5051907;28;20615;-86
2023/05/04 04:16:34;;;;;;;1.70;1.60;;;3.30;97.30;;;;;;5059912;28;20706;-84
2023/05/04 04:19:00;;;;;;;1.50;1.40;;;3.40;97.30;;;;;;5052348;28;20601;-86
2023/05/04 04:21:26;;;;;;;2.27;1.67;;;3.40;97.30;;;;;;5051782;28;20705;-86
2023/05/04 04:23:52;;;;;;;1.43;1.33;;;3.40;97.30;;;;;;5052051;28;20476;-84
2023/05/04 04:26:19;;;;;;;1.30;1.20;;;3.50;97.30;;;;;;5051845;28;20458;-84
2023/05/04 04:28:49;;;;;;;1.87;1.70;;;3.50;97.30;;;;;;5051648;28;20425;-84
2023/05/04 04:31:16;;;;;;;1.50;1.40;;;3.60;97.30;;;;;;5059891;28;20987;-84
2023/05/04 04:33:41;;;;;;;1.60;1.50;;;3.70;97.30;;;;;;5060576;28;20463;-84
2023/05/04 04:36:07;;;;;;;1.83;1.73;;;3.80;97.30;;;;;;5053297;28;20790;-84
2023/05/04 04:38:33;;;;;;;1.80;1.70;;;3.80;97.30;;;;;;5050862;28;20184;-85
2023/05/04 04:40:58;;;;;;;3.03;2.90;;;3.90;97.30;;;;;;5050315;28;21018;-81
2023/05/04 04:43:24;;;;;;;1.40;1.30;;;3.90;97.30;;;;;;5054127;28;20207;-84
2023/05/04 04:45:49;;;;;;;1.30;1.20;;;4.00;97.30;;;;;;5054974;28;20200;-85
2023/05/04 04:48:15;;;;;;;1.80;1.70;;;4.00;97.30;;;;;;5050076;28;20184;-84
2023/05/04 04:50:41;;;;;;;3.77;1.60;;;4.10;97.30;;;;;;5051236;28;20650;-84
2023/05/04 04:53:06;;;;;;;4.03;2.73;;;4.30;97.30;;;;;;5051081;28;20202;-85
2023/05/04 04:55:33;;;;;;;2.70;2.50;;;4.40;97.30;;;;;;5051285;28;20270;-83
2023/05/04 04:57:59;;;;;;;4.67;2.03;;;4.50;97.30;;;;;;5051303;28;20241;-87
2023/05/04 05:00:25;;;;;;;3.47;3.27;;;4.60;97.30;;;;;;5059559;28;20839;-84
2023/05/04 05:02:50;;;;;;;5.77;3.13;;;4.70;97.30;;;;;;5051210;28;20337;-85
2023/05/04 05:05:16;;;;;;;5.00;3.50;;;4.80;97.30;;;;;;5050981;28;21040;-85
2023/05/04 05:07:42;;;;;;;2.33;2.13;;;4.90;97.30;;;;;;5052282;28;20176;-84
2023/05/04 05:10:08;;;;;;;2.30;2.10;;;5.10;97.30;;;;;;5051177;28;20513;-86
2023/05/04 05:12:33;;;;;;;2.50;2.03;;;5.20;97.30;;;;;;5050691;28;20195;-86
2023/05/04 05:14:59;;;;;;;3.67;2.63;;;5.30;97.30;;;;;;5050835;28;20860;-84
2023/05/04 05:17:25;;;;;;;9.10;4.53;;;5.40;97.30;;;;;;5046119;28;20229;-84
2023/05/04 05:19:51;;;;;;;3.00;2.17;;;5.50;97.30;;;;;;5055596;28;20237;-84
2023/05/04 05:22:17;;;;;;;2.83;2.70;;;5.60;97.30;;;;;;5050595;28;20525;-84
2023/05/04 05:24:42;;;;;;;1.87;1.73;;;5.70;97.30;;;;;;5050554;28;20560;-85
2023/05/04 05:27:08;;;;;;;4.80;1.90;;;5.80;97.30;;;;;;5049626;28;20179;-84
2023/05/04 05:29:34;;;;;;;2.20;2.00;;;5.90;97.30;;;;;;5055468;28;20179;-84
2023/05/04 05:31:59;;;;;;;1.93;1.63;;;6.00;97.30;;;;;;5053999;28;20238;-85
2023/05/04 05:34:26;;;;;;;2.40;2.20;;;6.10;97.30;;;;;;5054317;28;20808;-83
2023/05/04 05:36:52;;;;;;;7.30;1.77;;;6.20;97.30;;;;;;5051612;28;20175;-83
2023/05/04 05:39:17;;;;;;;1.70;1.60;;;6.40;97.30;;;;;;5051092;28;20767;-84
2023/05/04 05:41:43;;;;;;;4.33;2.13;;;6.50;97.30;;;;;;5057375;28;20524;-85
2023/05/04 05:44:08;;;;;;;4.97;2.53;;;6.60;97.30;;;;;;5053079;28;20685;-85
2023/05/04 05:46:34;;;;;;;19.67;3.97;;;6.70;97.30;;;;;;5050318;28;20209;-84
2023/05/04 05:49:00;;;;;;;3.20;3.03;;;6.90;97.30;;;;;;5050905;28;20231;-85
2023/05/04 05:51:26;;;;;;;1.50;1.40;;;7.00;97.30;;;;;;5051775;28;20422;-84
2023/05/04 05:53:51;;;;;;;5.90;3.07;;;7.10;97.30;;;;;;5070646;28;20202;-84
2023/05/04 05:56:16;;;;;;;1.70;1.60;;;7.20;97.30;;;;;;5051794;28;20241;-85
2023/05/04 05:58:42;;;;;;;5.73;2.87;;;7.40;97.30;;;;;;5051795;28;20270;-84
2023/05/04 06:01:07;;;;;;;2.43;2.30;;;7.60;97.30;;;;;;5050877;28;20205;-84
2023/05/04 06:03:33;;;;;;;2.40;2.23;;;7.70;97.30;;;;;;5050122;28;20187;-84
2023/05/04 06:05:59;;;;;;;1.80;1.70;;;7.90;97.30;;;;;;5049482;28;20426;-84
2023/05/04 06:08:24;;;;;;;3.20;2.47;;;8.00;97.30;;;;;;5050065;28;20560;-84
2023/05/04 06:10:50;;;;;;;2.00;1.57;;;8.20;97.30;;;;;;5050013;28;20179;-86
2023/05/04 06:13:15;;;;;;;9.37;4.30;;;8.40;97.30;;;;;;5049947;28;20256;-85
2023/05/04 06:15:41;;;;;;;7.00;2.80;;;8.50;97.30;;;;;;5050125;28;20183;-85
2023/05/04 06:18:06;;;;;;;8.53;2.60;;;8.70;97.30;;;;;;5068657;28;20172;-85
2023/05/04 06:20:32;;;;;;;2.70;2.50;;;8.90;97.30;;;;;;5051441;28;20186;-86
2023/05/04 06:22:57;;;;;;;3.47;3.20;;;9.10;97.30;;;;;;5050003;28;20203;-84
2023/05/04 06:25:23;;;;;;;4.47;2.47;;;9.20;97.30;;;;;;5049547;28;20199;-84
2023/05/04 06:27:48;;;;;;;3.03;2.43;;;9.40;97.30;;;;;;5055351;28;20201;-84
2023/05/04 06:30:14;;;;;;;2.17;1.80;;;9.50;97.30;;;;;;5051240;28;20179;-86
2023/05/04 06:32:40;;;;;;;2.40;2.10;;;9.70;97.30;;;;;;5057180;28;20236;-84
2023/05/04 06:35:07;;;;;;;1.73;1.63;;;9.90;97.30;;;;;;5049859;28;20462;-84
2023/05/04 06:37:33;;;;;;;2.80;1.80;;;10.00;97.30;;;;;;5049961;28;20176;-85
2023/05/04 06:39:59;;;;;;;1.80;1.70;;;10.20;97.30;;;;;;5061545;28;20479;-85
2023/05/04 06:42:28;;;;;;;17.67;4.27;;;10.40;97.30;;;;;;5056930;28;20199;-85
2023/05/04 06:44:53;;;;;;;1.30;1.20;;;10.50;97.30;;;;;;5056455;28;20187;-85
2023/05/04 06:47:19;;;;;;;3.23;2.50;;;10.70;97.30;;;;;;5057960;28;20425;-84
2023/05/04 06:49:45;;;;;;;4.70;1.73;;;10.80;97.30;;;;;;5059803;28;20675;-85
2023/05/04 06:52:10;;;;;;;2.07;1.93;;;11.00;97.30;;;;;;5053691;28;20270;-84
2023/05/04 06:54:36;;;;;;;2.53;2.33;;;11.10;97.30;;;;;;5053568;28;20599;-87
2023/05/04 06:57:02;;;;;;;1.73;1.50;;;11.30;97.30;;;;;;5052935;28;20248;-85
2023/05/04 06:59:27;;;;;;;5.90;2.90;;;11.40;96.20;;;;;;5061383;28;20178;-84
2023/05/04 07:01:53;;;;;;;2.07;1.93;;;11.60;96.30;;;;;;5065117;28;20516;-85
2023/05/04 07:04:22;;;;;;;3.13;2.73;;;11.70;96.00;;;;;;5054422;28;20659;-85
2023/05/04 07:06:49;;;;;;;3.57;2.90;;;11.90;95.70;;;;;;5052779;28;20212;-85
2023/05/04 07:09:15;;;;;;;2.60;2.40;;;12.00;95.40;;;;;;5054319;28;20479;-85
2023/05/04 07:11:40;;;;;;;3.97;2.10;;;12.10;94.20;;;;;;5059201;28;20798;-85
2023/05/04 07:14:06;;;;;;;3.60;3.40;;;12.20;94.40;;;;;;5056476;28;20176;-85
2023/05/04 07:16:31;;;;;;;2.90;2.60;;;12.30;93.80;;;;;;5072146;28;20184;-85
2023/05/04 07:18:57;;;;;;;2.23;2.07;;;12.50;93.50;;;;;;5056400;28;20188;-87
2023/05/04 07:21:23;;;;;;;2.30;2.10;;;12.60;93.20;;;;;;5056787;28;20184;-84
2023/05/04 07:23:50;;;;;;;9.03;1.80;;;12.70;92.70;;;;;;5053069;28;20567;-85
2023/05/04 07:26:16;;;;;;;21.77;3.13;;;12.80;92.50;;;;;;5058339;28;20207;-85
2023/05/04 07:28:42;;;;;;;1.77;1.73;;;13.00;92.30;;;;;;5053161;28;20939;-85
2023/05/04 07:31:09;;;;;;;5.13;3.70;;;13.10;91.50;;;;;;5052323;28;20172;-86
2023/05/04 07:33:34;;;;;;;1.83;1.70;;;13.20;91.10;;;;;;5051953;28;20996;-85
2023/05/04 07:36:00;;;;;;;2.17;2.00;;;13.30;90.90;;;;;;5047780;28;20433;-86
2023/05/04 07:38:26;;;;;;;2.13;1.67;;;13.40;89.70;;;;;;5052222;28;20184;-85
2023/05/04 07:40:55;;;;;;;2.70;2.27;;;13.60;90.00;;;;;;5060737;28;20209;-85
2023/05/04 07:43:21;;;;;;;3.20;2.00;;;13.70;89.50;;;;;;5051964;28;20434;-85
2023/05/04 07:45:47;;;;;;;3.77;2.80;;;13.90;89.10;;;;;;5057654;28;20510;-85
2023/05/04 07:48:13;;;;;;;2.00;1.90;;;14.00;88.30;;;;;;5054795;28;20418;-86
2023/05/04 07:50:38;;;;;;;3.00;2.50;;;14.10;89.30;;;;;;5052353;28;20180;-86
2023/05/04 07:53:04;;;;;;;1.50;1.40;;;14.30;87.90;;;;;;5053800;28;20200;-84
2023/05/04 07:55:29;;;;;;;2.23;2.03;;;14.40;87.10;;;;;;5061840;28;20462;-84
2023/05/04 07:57:55;;;;;;;2.17;1.67;;;14.60;87.70;;;;;;5054075;28;20191;-87
2023/05/04 08:00:21;;;;;;;2.93;2.73;;;14.80;86.70;;;;;;5054258;28;20184;-85
2023/05/04 08:02:46;;;;;;;2.33;2.13;;;14.90;85.20;;;;;;5058355;28;20215;-87
2023/05/04 08:05:12;;;;;;;4.70;3.40;;;15.00;85.80;;;;;;5060273;28;20294;-86
2023/05/04 08:07:37;;;;;;;1.90;1.50;;;15.20;85.70;;;;;;5052000;28;20206;-84
2023/05/04 08:10:03;;;;;;;6.60;4.03;;;15.20;83.80;;;;;;5051759;28;20178;-84
2023/05/04 08:12:29;;;;;;;2.20;1.70;;;15.30;84.90;;;;;;5053285;28;20208;-84
2023/05/04 08:14:54;;;;;;;1.40;1.30;;;15.50;84.20;;;;;;5061014;28;20242;-84
2023/05/04 08:17:20;;;;;;;1.60;1.50;;;15.60;83.70;;;;;;5052776;28;20650;-86
2023/05/04 08:19:45;;;;;;;4.80;1.73;;;15.80;83.00;;;;;;5052894;28;20541;-85
2023/05/04 08:22:11;;;;;;;25.40;2.50;;;15.80;81.30;;;;;;5060157;28;20249;-85
2023/05/04 08:24:36;;;;;;;6.00;2.00;;;15.90;80.70;;;;;;5063588;28;20282;-85
2023/05/04 08:27:02;;;;;;;4.30;2.07;;;16.00;79.70;;;;;;5056935;28;20812;-85
2023/05/04 08:29:28;;;;;;;1.53;1.30;;;16.10;80.40;;;;;;5052338;28;20176;-84
2023/05/04 08:31:55;;;;;;;10.73;4.60;;;16.30;80.40;;;;;;5052198;28;20246;-84
2023/05/04 08:34:21;;;;;;;1.90;1.40;;;16.30;81.30;;;;;;5052239;28;20912;-85
2023/05/04 08:36:46;;;;;;;3.00;2.80;;;16.40;81.70;;;;;;5047275;28;20422;-85
2023/05/04 08:39:12;;;;;;;2.23;2.03;;;16.40;79.60;;;;;;5051039;28;20176;-86
2023/05/04 08:41:39;;;;;;;12.13;2.87;;;16.50;79.20;;;;;;5051900;28;20282;-84
2023/05/04 08:44:07;;;;;;;3.33;2.50;;;16.50;80.30;;;;;;5061088;28;20180;-85
2023/05/04 08:46:33;;;;;;;2.30;2.10;;;16.60;81.90;;;;;;5059045;28;20507;-84
2023/05/04 08:48:59;;;;;;;9.70;2.23;;;16.50;82.60;;;;;;5051096;28;20503;-84
2023/05/04 08:51:26;;;;;;;1.73;1.50;;;16.40;82.10;;;;;;5054527;28;20196;-85
2023/05/04 08:53:52;;;;;;;3.37;1.97;;;16.40;82.10;;;;;;5058112;28;20171;-85
2023/05/04 08:56:20;;;;;;;5.03;2.63;;;16.50;79.90;;;;;;5059015;28;20519;-84
2023/05/04 08:58:50;;;;;;;2.60;2.13;;;16.50;81.20;;;;;;5051876;28;20424;-85
2023/05/04 09:01:17;;;;;;;3.13;2.37;;;16.60;81.00;;;;;;5050046;28;20452;-85
2023/05/04 09:03:46;;;;;;;1.33;1.30;;;16.60;81.80;;;;;;5050263;28;20424;-86
2023/05/04 09:06:12;;;;;;;6.13;2.27;;;16.60;81.40;;;;;;5067155;28;20461;-84
2023/05/04 09:08:38;;;;;;;1.40;1.30;;;16.70;82.50;;;;;;5058346;28;20426;-84
2023/05/04 09:11:04;;;;;;;2.77;2.03;;;16.80;81.50;;;;;;5050801;28;20414;-85
2023/05/04 09:13:30;;;;;;;2.27;2.03;;;16.80;82.20;;;;;;5050822;28;20211;-85
2023/05/04 09:15:57;;;;;;;20.17;2.47;;;16.80;82.30;;;;;;5058546;28;20194;-84
2023/05/04 09:18:34;;;;;;;2.70;1.90;;;16.90;81.90;;;;;;5050396;28;20418;-86
2023/05/04 09:20:59;;;;;;;2.13;2.00;;;17.00;80.80;;;;;;5051525;28;20418;-85
2023/05/04 09:23:26;;;;;;;3.20;2.50;;;17.00;79.80;;;;;;5051838;28;20442;-85
2023/05/04 09:25:53;;;;;;;2.27;2.00;;;17.10;81.10;;;;;;5056256;28;20207;-86
2023/05/04 09:28:20;;;;;;;1.77;1.67;;;17.10;80.20;;;;;;5051714;28;20414;-84
2023/05/04 09:30:50;;;;;;;3.30;2.50;;;17.20;80.10;;;;;;5049978;28;20425;-84
2023/05/04 09:33:15;;;;;;;2.10;1.77;;;17.20;79.60;;;;;;5051353;28;20470;-84
2023/05/04 09:35:43;;;;;;;8.73;2.47;;;17.20;79.10;;;;;;5052645;28;20427;-84
2023/05/04 09:38:09;;;;;;;2.37;2.23;;;17.20;79.60;;;;;;5059846;28;20175;-84
2023/05/04 09:40:37;;;;;;;1.50;1.43;;;17.40;79.70;;;;;;5051192;28;20418;-86
2023/05/04 09:43:03;;;;;;;7.73;3.00;;;17.50;78.30;;;;;;5051685;28;20470;-86
2023/05/04 09:45:42;;;;;;;9.33;2.63;;;17.60;79.10;;;;;;5051657;28;20485;-84
2023/05/04 09:48:16;;;;;;;4.77;3.10;;;17.60;79.10;;;;;;5050076;28;20706;-85
2023/05/04 09:50:50;;;;;;;2.40;2.03;;;17.60;78.40;;;;;;5054598;28;20935;-85
2023/05/04 09:53:18;;;;;;;3.90;2.10;;;17.50;78.20;;;;;;5054910;28;20426;-84
2023/05/04 09:55:46;;;;;;;3.50;1.67;;;17.60;79.10;;;;;;5057387;28;20487;-85
2023/05/04 09:58:15;;;;;;;2.17;2.00;;;17.60;79.30;;;;;;5049569;28;20504;-85
2023/05/04 10:00:41;;;;;;;4.30;2.90;;;17.60;80.10;;;;;;5049466;28;20949;-86
2023/05/04 10:03:07;;;;;;;4.83;2.30;;;17.70;78.90;;;;;;5057785;28;20446;-85
2023/05/04 10:05:33;;;;;;;4.60;2.90;;;17.90;80.10;;;;;;5049146;28;20488;-85
2023/05/04 10:08:00;;;;;;;3.03;2.13;;;18.00;79.20;;;;;;5049705;28;20207;-85
2023/05/04 10:10:26;;;;;;;4.17;3.47;;;18.10;79.20;;;;;;5050085;28;20190;-85
2023/05/04 10:12:51;;;;;;;2.03;1.73;;;18.10;78.80;;;;;;5050044;28;20434;-86
2023/05/04 10:15:19;;;;;;;2.60;1.97;;;18.10;78.30;;;;;;5054139;28;20670;-84
2023/05/04 10:18:02;;;;;;;7.23;3.93;;;18.20;76.70;;;;;;5054291;28;20661;-84
2023/05/04 10:21:04;;;;;;;10.57;2.80;;;18.20;77.30;;;;;;5053862;28;20432;-84
2023/05/04 10:23:55;;;;;;;3.83;2.43;;;18.30;78.30;;;;;;5053525;28;20575;-84
2023/05/04 10:26:58;;;;;;;2.53;2.33;;;18.50;77.50;;;;;;5063962;28;20466;-84
2023/05/04 10:29:27;;;;;;;3.90;2.37;;;18.70;78.10;;;;;;5069506;28;20429;-85
2023/05/04 10:31:53;;;;;;;3.93;3.30;;;18.80;78.20;;;;;;5053568;28;20474;-81
2023/05/04 10:34:27;;;;;;;1.83;1.77;;;18.70;75.10;;;;;;5054207;28;20938;-86
2023/05/04 10:36:52;;;;;;;2.50;1.97;;;18.70;77.20;;;;;;5047319;28;20962;-85
2023/05/04 10:39:29;;;;;;;8.40;2.40;;;18.70;75.50;;;;;;5053091;28;20437;-84
2023/05/04 10:42:04;;;;;;;5.23;2.20;;;18.90;77.70;;;;;;5054484;28;20195;-85
2023/05/04 10:44:31;;;;;;;2.63;2.43;;;19.10;75.90;;;;;;5053495;28;20487;-85
2023/05/04 10:47:00;;;;;;;1.97;1.87;;;19.20;73.40;;;;;;5060393;28;20449;-85
2023/05/04 10:49:26;;;;;;;1.90;1.80;;;19.40;72.40;;;;;;5054974;28;20517;-86
2023/05/04 10:52:11;;;;;;;6.97;2.53;;;19.40;74.30;;;;;;5054350;28;20525;-85
2023/05/04 10:54:38;;;;;;;2.23;2.03;;;19.60;72.60;;;;;;5053388;28;20176;-85
2023/05/04 10:57:12;;;;;;;2.50;2.30;;;19.80;74.60;;;;;;5053168;28;20525;-85
2023/05/04 10:59:39;;;;;;;2.60;2.00;;;19.90;74.00;;;;;;5062898;28;20412;-85
2023/05/04 11:02:06;;;;;;;8.27;2.80;;;19.90;76.00;;;;;;5053362;28;20446;-85
2023/05/04 11:04:33;;;;;;;3.37;1.80;;;19.90;73.20;;;;;;5056963;28;20456;-85
2023/05/04 11:07:00;;;;;;;1.47;1.37;;;19.70;74.10;;;;;;5058866;28;20532;-84
2023/05/04 11:09:27;;;;;;;3.10;1.97;;;19.60;73.80;;;;;;5052917;28;20418;-86
2023/05/04 11:11:54;;;;;;;2.10;1.80;;;19.50;73.40;;;;;;5052548;28;20442;-85
2023/05/04 11:14:27;;;;;;;2.00;1.93;;;19.40;75.10;;;;;;5053068;28;20467;-84
2023/05/04 11:17:09;;;;;;;6.50;2.67;;;19.40;76.40;;;;;;5059965;28;20425;-86
2023/05/04 11:19:35;;;;;;;2.50;2.37;;;19.60;72.90;;;;;;5052648;28;20612;-85
2023/05/04 11:22:01;;;;;;;7.10;3.23;;;19.80;73.30;;;;;;5052562;28;20541;-85
2023/05/04 11:24:44;;;;;;;4.07;2.30;;;20.00;71.90;;;;;;5051782;28;20187;-85
2023/05/04 11:27:28;;;;;;;1.90;1.60;;;20.20;71.10;;;;;;5052879;28;20468;-85
2023/05/04 11:29:54;;;;;;;2.87;2.60;;;20.20;67.50;;;;;;5046191;28;20421;-85
2023/05/04 11:32:19;;;;;;;8.63;2.30;;;20.30;68.10;;;;;;5052186;28;20498;-82
2023/05/04 11:34:45;;;;;;;6.43;2.40;;;20.50;69.30;;;;;;5052359;28;20453;-86
2023/05/04 11:37:12;;;;;;;2.63;2.47;;;20.50;68.40;;;;;;5052607;28;20245;-85
2023/05/04 11:39:37;;;;;;;1.63;1.57;;;20.60;67.50;;;;;;5052411;28;20188;-85
2023/05/04 11:42:07;;;;;;;7.33;2.70;;;20.70;68.90;;;;;;5052656;28;20438;-85
2023/05/04 11:44:34;;;;;;;3.10;2.70;;;20.80;70.00;;;;;;5052009;28;20191;-84
2023/05/04 11:47:00;;;;;;;2.40;2.20;;;21.00;69.70;;;;;;5064066;28;20465;-85
2023/05/04 11:49:26;;;;;;;2.17;1.70;;;21.10;67.80;;;;;;5055644;28;20414;-84
2023/05/04 11:51:52;;;;;;;1.83;1.50;;;21.10;68.90;;;;;;5060067;28;20956;-86
2023/05/04 11:54:20;;;;;;;2.50;2.10;;;21.20;68.10;;;;;;5051983;28;20415;-85
2023/05/04 11:56:45;;;;;;;3.63;1.73;;;21.30;69.60;;;;;;5061841;28;20176;-85
2023/05/04 11:59:11;;;;;;;4.65;1.80;;;21.50;69.00;;;;;;5052082;28;20966;-85
2023/05/04 12:01:36;;;;;;;2.20;2.03;;;21.50;68.00;;;;;;5051242;28;20317;-85
2023/05/04 12:04:03;;;;;;;1.93;1.37;;;21.50;67.50;;;;;;5051809;28;20258;-85
2023/05/04 12:06:32;;;;;;;4.13;2.13;;;21.60;67.40;;;;;;5051779;28;20215;-87
2023/05/04 12:09:05;;;;;;;2.30;2.10;;;21.50;67.50;;;;;;5052052;28;20982;-84
2023/05/04 12:11:31;;;;;;;1.60;1.50;;;21.60;64.00;;;;;;5053240;28;20461;-86
2023/05/04 12:14:05;;;;;;;1.80;1.30;;;21.60;65.40;;;;;;5063774;28;20442;-85
2023/05/04 12:16:31;;;;;;;2.53;2.33;;;21.70;67.00;;;;;;5054013;28;20206;-86
2023/05/04 12:19:11;;;;;;;1.23;1.13;;;21.90;65.90;;;;;;5054010;28;20414;-86
2023/05/04 12:21:51;;;;;;;1.73;1.67;;;21.90;66.80;;;;;;5051502;28;20307;-85
2023/05/04 12:24:18;;;;;;;5.13;1.50;;;22.00;66.20;;;;;;5052489;28;20425;-85
2023/05/04 12:26:44;;;;;;;2.90;2.50;;;22.10;65.70;;;;;;5060312;28;20850;-84
2023/05/04 12:29:09;;;;;;;1.17;1.07;;;22.30;67.70;;;;;;5051229;28;20435;-85
2023/05/04 12:31:35;;;;;;;1.70;1.70;;;22.60;65.80;;;;;;5050999;28;20199;-85
2023/05/04 12:34:00;;;;;;;3.13;2.07;;;22.50;64.40;;;;;;5050633;28;20531;-84
2023/05/04 12:36:26;;;;;;;12.77;2.37;;;22.70;65.60;;;;;;5044798;28;20380;-85
2023/05/04 12:38:51;;;;;;;1.80;1.70;;;22.80;65.60;;;;;;5051484;28;20180;-84
2023/05/04 12:41:17;;;;;;;5.03;3.00;;;22.70;64.00;;;;;;5059010;28;20229;-86
2023/05/04 12:43:42;;;;;;;4.13;2.10;;;22.80;66.30;;;;;;5051332;28;20183;-84
2023/05/04 12:46:08;;;;;;;1.90;1.83;;;22.80;64.90;;;;;;5058907;28;20279;-85
2023/05/04 12:48:33;;;;;;;1.87;1.70;;;22.90;65.00;;;;;;5070852;28;20665;-85
2023/05/04 12:51:00;;;;;;;1.83;1.67;;;23.00;65.30;;;;;;5062139;28;20273;-84